Time;durP1;ratioP1;P1;durP2;ratioP2;P2;SDS_P1;SDS_P2;PMS_P1;PMS_P2;Temp;Humidity;BMP_temperature;BMP_pressure;BME280_temperature;BME280_humidity;BME280_pressure;Samples;Min_cycle;Max_cycle;Signal;HPM_P1;HPM_P2
2021/05/23 00:04:52;;;;;;;1.77;0.80;;;9.10;99.90;;;;;;21008953;28;20036;-78
2021/05/23 00:14:53;;;;;;;2.80;0.77;;;9.10;99.90;;;;;;20994984;28;20128;-77
2021/05/23 00:24:53;;;;;;;1.47;0.70;;;8.90;99.90;;;;;;20987813;28;20594;-79
2021/05/23 00:34:54;;;;;;;1.87;0.80;;;9.00;99.90;;;;;;20987855;28;20052;-80
2021/05/23 00:44:55;;;;;;;4.30;1.00;;;9.00;99.90;;;;;;21007738;28;20039;-78
2021/05/23 00:54:56;;;;;;;9.20;1.17;;;9.00;99.90;;;;;;21005630;28;20397;-80
2021/05/23 01:04:57;;;;;;;3.93;0.93;;;9.00;99.90;;;;;;21157729;28;20079;-78
2021/05/23 01:15:00;;;;;;;2.20;1.10;;;8.90;99.90;;;;;;21163246;28;20516;-78
2021/05/23 01:25:09;;;;;;;2.05;1.15;;;8.90;99.90;;;;;;21131785;28;20051;-80
2021/05/23 01:35:17;;;;;;;1.88;0.85;;;8.80;99.90;;;;;;21021848;28;20029;-78
2021/05/23 01:45:18;;;;;;;4.10;0.77;;;8.80;99.90;;;;;;21017409;28;20588;-78
2021/05/23 01:55:19;;;;;;;1.27;0.60;;;8.70;99.90;;;;;;21039094;28;20028;-80
2021/05/23 02:05:20;;;;;;;1.60;0.80;;;8.60;99.90;;;;;;21046244;28;20035;-80
2021/05/23 02:15:21;;;;;;;1.30;0.60;;;8.40;99.90;;;;;;21062657;28;20077;-80
2021/05/23 02:25:22;;;;;;;0.97;0.70;;;8.30;99.90;;;;;;21013399;28;20392;-81
2021/05/23 02:35:26;;;;;;;6.13;1.17;;;8.20;99.90;;;;;;21013858;28;20378;-79
2021/05/23 02:45:27;;;;;;;3.72;0.70;;;8.20;99.90;;;;;;21018541;28;20048;-80
2021/05/23 02:55:28;;;;;;;1.52;0.93;;;8.10;99.90;;;;;;21019106;28;20107;-80
2021/05/23 03:05:29;;;;;;;2.47;0.88;;;8.10;99.90;;;;;;21017968;28;20037;-80
2021/05/23 03:15:31;;;;;;;3.57;0.73;;;8.10;99.90;;;;;;21017378;28;20437;-81
2021/05/23 03:25:32;;;;;;;1.03;0.60;;;8.00;99.90;;;;;;21019098;28;20055;-80
2021/05/23 03:35:34;;;;;;;2.55;1.00;;;7.90;99.90;;;;;;21012480;28;20310;-79
2021/05/23 03:45:35;;;;;;;4.80;0.77;;;8.00;99.90;;;;;;21014853;28;20032;-80
2021/05/23 03:55:36;;;;;;;3.27;1.07;;;8.00;99.90;;;;;;21089582;28;20066;-79
2021/05/23 04:05:37;;;;;;;3.10;0.67;;;8.00;99.90;;;;;;21097011;28;20031;-80
2021/05/23 04:15:38;;;;;;;1.53;0.87;;;7.90;99.90;;;;;;21094254;28;20464;-79
2021/05/23 04:25:39;;;;;;;8.00;1.13;;;8.00;99.90;;;;;;21092303;28;20177;-80
2021/05/23 04:35:40;;;;;;;2.97;0.90;;;8.00;99.90;;;;;;21093186;28;20028;-80
2021/05/23 04:45:41;;;;;;;3.00;0.90;;;8.00;99.90;;;;;;21092045;28;20032;-80
2021/05/23 04:55:42;;;;;;;4.03;1.07;;;8.00;99.90;;;;;;21089586;28;20035;-78
2021/05/23 05:05:42;;;;;;;2.40;0.63;;;8.00;99.90;;;;;;21091215;28;20059;-78
2021/05/23 05:15:43;;;;;;;2.00;1.00;;;8.00;99.90;;;;;;21090693;28;20533;-78
2021/05/23 05:25:44;;;;;;;3.97;1.10;;;8.00;99.90;;;;;;21067864;28;20036;-79
2021/05/23 05:35:45;;;;;;;5.83;2.07;;;8.10;99.90;;;;;;21089221;28;20032;-78
2021/05/23 05:45:46;;;;;;;5.57;1.63;;;8.20;99.90;;;;;;21091054;28;20028;-80
2021/05/23 05:55:47;;;;;;;2.83;1.10;;;8.40;99.90;;;;;;21079331;28;20300;-78
2021/05/23 06:05:48;;;;;;;2.83;1.47;;;8.60;99.90;;;;;;21009179;28;20036;-79
2021/05/23 06:15:49;;;;;;;8.83;1.77;;;8.60;99.90;;;;;;21024711;28;20106;-79
2021/05/23 06:25:50;;;;;;;5.70;3.07;;;8.80;99.90;;;;;;21030332;28;20025;-80
2021/05/23 06:35:51;;;;;;;9.18;1.38;;;9.50;99.90;;;;;;21040285;28;20036;-78
2021/05/23 06:45:52;;;;;;;5.40;1.77;;;10.20;99.90;;;;;;21036323;28;20029;-80
2021/05/23 06:55:53;;;;;;;2.90;0.83;;;10.60;99.90;;;;;;21036662;28;20036;-80
2021/05/23 07:05:54;;;;;;;3.07;1.00;;;10.30;99.90;;;;;;21030160;28;20037;-80
2021/05/23 07:15:55;;;;;;;2.27;1.10;;;10.00;99.90;;;;;;21019670;28;20035;-76
2021/05/23 07:25:56;;;;;;;6.22;1.02;;;10.10;99.90;;;;;;21011139;28;20158;-76
2021/05/23 07:35:57;;;;;;;6.30;0.70;;;11.70;99.90;;;;;;21032940;28;20043;-76
2021/05/23 07:45:58;;;;;;;5.10;1.17;;;11.10;99.90;;;;;;21042849;28;20066;-77
2021/05/23 07:55:59;;;;;;;4.73;0.87;;;10.90;99.90;;;;;;21019278;22;20041;-74
2021/05/23 08:06:04;;;;;;;1.08;0.70;;;11.20;99.90;;;;;;20932705;28;20411;-74
2021/05/23 08:16:07;;;;;;;2.25;1.58;;;12.10;99.90;;;;;;20898266;28;20037;-75
2021/05/23 08:26:08;;;;;;;4.53;0.90;;;12.10;99.90;;;;;;20873147;28;20486;-75
2021/05/23 08:36:09;;;;;;;8.83;0.80;;;13.10;99.90;;;;;;21035262;28;20182;-75
2021/05/23 08:46:10;;;;;;;4.68;1.00;;;12.90;99.90;;;;;;21056905;28;20042;-76
2021/05/23 08:56:11;;;;;;;8.43;3.17;;;13.40;99.90;;;;;;21055907;28;20028;-75
2021/05/23 09:06:12;;;;;;;3.07;0.73;;;13.80;99.90;;;;;;21055921;28;20031;-75
2021/05/23 09:16:13;;;;;;;2.40;0.60;;;13.80;99.90;;;;;;21054416;28;20036;-75
2021/05/23 09:26:42;;;;;;;2.78;0.70;;;14.30;99.90;;;;;;21022546;28;20043;-75
2021/05/23 09:36:44;;;;;;;3.20;0.80;;;15.20;99.90;;;;;;20960058;28;20557;-75
2021/05/23 09:47:09;;;;;;;3.70;0.55;;;15.30;99.90;;;;;;20965730;28;20036;-75
2021/05/23 09:57:13;;;;;;;0.82;0.43;;;15.40;99.90;;;;;;20903536;28;20064;-75
2021/05/23 10:07:13;;;;;;;0.55;0.30;;;15.40;99.90;;;;;;20884357;28;20041;-75
2021/05/23 10:17:15;;;;;;;1.30;0.25;;;16.60;99.90;;;;;;20885542;28;20395;-75
2021/05/23 10:27:23;;;;;;;1.13;0.37;;;16.40;99.90;;;;;;20902047;28;20082;-77
2021/05/23 10:37:29;;;;;;;4.55;0.57;;;16.50;99.90;;;;;;21047027;28;20055;-76
2021/05/23 10:47:32;;;;;;;13.73;6.22;;;16.00;99.90;;;;;;21066497;28;20040;-77
2021/05/23 10:58:06;;;;;;;4.00;0.77;;;17.30;99.90;;;;;;21065176;28;20090;-76
2021/05/23 11:08:08;;;;;;;8.35;4.05;;;16.30;99.90;;;;;;21002909;28;20044;-76
2021/05/23 11:18:10;;;;;;;1.92;0.60;;;17.10;99.90;;;;;;21028944;28;20036;-76
2021/05/23 11:28:11;;;;;;;3.05;0.70;;;17.50;99.90;;;;;;21057516;28;20035;-76
2021/05/23 11:38:11;;;;;;;4.60;1.77;;;16.60;99.90;;;;;;20940460;28;20543;-76
2021/05/23 11:48:12;;;;;;;6.07;3.85;;;16.40;99.90;;;;;;20935974;28;20040;-77
2021/05/23 11:58:13;;;;;;;12.60;5.27;;;17.60;99.90;;;;;;20912960;28;20074;-75
2021/05/23 12:08:21;;;;;;;3.73;1.03;;;17.60;99.90;;;;;;20955076;28;20040;-77
2021/05/23 12:18:32;;;;;;;2.30;0.38;;;17.80;99.90;;;;;;20980183;28;20046;-77
2021/05/23 12:28:38;;;;;;;5.43;1.10;;;17.40;99.90;;;;;;20963134;28;20063;-77
2021/05/23 12:38:54;;;;;;;2.60;0.60;;;18.10;99.90;;;;;;20913046;28;20056;-76
2021/05/23 12:48:55;;;;;;;2.30;0.40;;;17.90;99.90;;;;;;20963356;28;20032;-77
2021/05/23 12:58:58;;;;;;;2.63;0.43;;;18.40;99.90;;;;;;20960102;28;20406;-79
2021/05/23 13:09:01;;;;;;;0.80;0.50;;;18.10;99.90;;;;;;20964535;28;20032;-80
2021/05/23 13:19:10;;;;;;;1.48;0.60;;;17.70;99.90;;;;;;20960230;28;20492;-78
2021/05/23 13:29:11;;;;;;;2.00;0.40;;;18.10;99.90;;;;;;20975452;28;20743;-77
2021/05/23 13:39:13;;;;;;;1.77;0.40;;;18.50;99.90;;;;;;21062380;28;20262;-78
2021/05/23 13:49:16;;;;;;;13.10;8.02;;;18.40;99.90;;;;;;21034071;28;20435;-77
2021/05/23 13:59:17;;;;;;;2.65;0.90;;;18.40;99.90;;;;;;20953116;22;20048;-75
2021/05/23 14:09:19;;;;;;;1.27;0.30;;;18.00;99.90;;;;;;20950396;28;20050;-73
2021/05/23 14:19:20;;;;;;;1.17;0.40;;;19.30;98.20;;;;;;20968546;28;20097;-75
2021/05/23 14:29:22;;;;;;;2.57;0.70;;;19.50;99.90;;;;;;20992519;28;20036;-75
2021/05/23 14:39:23;;;;;;;1.27;0.50;;;18.70;99.90;;;;;;21020579;28;20036;-75
2021/05/23 14:49:24;;;;;;;10.00;3.53;;;18.70;98.20;;;;;;20977537;28;20032;-75
2021/05/23 14:59:25;;;;;;;4.43;2.53;;;18.70;99.70;;;;;;21068275;28;20085;-75
2021/05/23 15:09:26;;;;;;;2.27;0.60;;;18.80;98.40;;;;;;20989441;28;20051;-76
2021/05/23 15:19:27;;;;;;;0.63;0.37;;;18.80;99.00;;;;;;20982181;28;20086;-74
2021/05/23 15:39:47;;;;;;;0.65;0.22;;;18.30;98.50;;;;;;21002423;28;20035;-74
2021/05/23 15:49:48;;;;;;;2.93;0.50;;;18.70;99.90;;;;;;21006864;28;20709;-74
2021/05/23 15:59:49;;;;;;;0.38;0.30;;;18.10;99.40;;;;;;20894418;28;20418;-73
2021/05/23 16:09:50;;;;;;;1.13;0.50;;;17.90;99.90;;;;;;20893720;28;20036;-73
2021/05/23 16:19:51;;;;;;;2.87;0.90;;;17.70;99.90;;;;;;20875054;28;20170;-76
2021/05/23 16:29:52;;;;;;;1.17;0.50;;;17.10;99.90;;;;;;20965072;28;20037;-73
2021/05/23 16:39:52;;;;;;;3.88;1.25;;;17.70;99.90;;;;;;20973502;28;20063;-73
2021/05/23 16:49:53;;;;;;;7.47;1.67;;;17.90;99.90;;;;;;20971975;28;20040;-73
2021/05/23 16:59:54;;;;;;;1.70;0.97;;;17.80;98.60;;;;;;20973282;28;20598;-74
2021/05/23 17:09:55;;;;;;;1.60;0.40;;;18.00;98.70;;;;;;20992131;28;20035;-74
2021/05/23 17:19:56;;;;;;;1.07;0.30;;;17.80;99.90;;;;;;20969821;28;20039;-75
2021/05/23 17:29:57;;;;;;;1.67;0.40;;;18.10;99.90;;;;;;20967398;28;20040;-74
2021/05/23 17:39:57;;;;;;;3.03;0.50;;;18.00;99.60;;;;;;20945515;28;20498;-75
2021/05/23 17:49:58;;;;;;;2.23;0.50;;;17.90;98.90;;;;;;20911990;28;20178;-75
2021/05/23 18:00:01;;;;;;;2.50;0.30;;;18.10;99.90;;;;;;20964465;28;20032;-75
2021/05/23 18:10:10;;;;;;;0.70;0.38;;;18.10;99.90;;;;;;20984158;28;20043;-74
2021/05/23 18:20:13;;;;;;;1.65;0.47;;;18.10;99.90;;;;;;20971584;28;20059;-74
2021/05/23 18:30:14;;;;;;;1.30;0.60;;;16.40;99.90;;;;;;20935734;28;20034;-74
2021/05/23 18:40:22;;;;;;;1.27;0.40;;;16.10;99.90;;;;;;20957134;28;20030;-74
2021/05/23 18:50:23;;;;;;;1.35;0.60;;;15.20;99.90;;;;;;21000779;28;20125;-75
2021/05/23 19:00:24;;;;;;;2.70;1.20;;;14.60;99.90;;;;;;20901025;28;20041;-74
2021/05/23 19:10:25;;;;;;;3.67;0.93;;;14.40;99.90;;;;;;20899486;28;20139;-74
2021/05/23 19:20:29;;;;;;;2.97;1.10;;;13.40;99.90;;;;;;20899690;28;20033;-75
2021/05/23 19:30:30;;;;;;;3.28;1.55;;;13.00;99.90;;;;;;20894777;28;20036;-74
2021/05/23 19:40:31;;;;;;;2.13;1.10;;;12.40;99.90;;;;;;20955171;28;20036;-75
2021/05/23 19:50:33;;;;;;;1.73;1.25;;;12.00;99.90;;;;;;20965860;28;20044;-73
2021/05/23 20:00:35;;;;;;;3.30;1.43;;;11.80;99.90;;;;;;21115735;22;20596;-80
2021/05/23 20:10:36;;;;;;;3.63;1.50;;;11.30;99.90;;;;;;21153063;27;20058;-79
2021/05/23 20:20:37;;;;;;;3.53;1.77;;;11.40;99.90;;;;;;21254725;27;20103;-80
2021/05/23 20:30:38;;;;;;;5.77;1.50;;;11.10;99.90;;;;;;21207848;28;20073;-80
2021/05/23 20:40:40;;;;;;;1.73;1.10;;;10.70;99.90;;;;;;21220342;28;20448;-80
2021/05/23 20:50:41;;;;;;;7.32;1.40;;;10.50;99.90;;;;;;21188728;28;20558;-80
2021/05/23 21:00:42;;;;;;;2.07;1.30;;;10.10;99.90;;;;;;21127243;28;20036;-79
2021/05/23 21:10:43;;;;;;;2.77;1.37;;;10.10;99.90;;;;;;21141075;28;20076;-80
2021/05/23 21:20:44;;;;;;;3.50;0.80;;;10.10;99.90;;;;;;21182663;28;20080;-80
2021/05/23 21:30:45;;;;;;;2.50;1.30;;;10.30;99.90;;;;;;21204289;28;20122;-80
2021/05/23 21:40:49;;;;;;;4.90;1.10;;;10.10;99.90;;;;;;21172309;28;20038;-79
2021/05/23 21:50:51;;;;;;;5.25;1.33;;;10.00;99.90;;;;;;21175307;28;20146;-80
2021/05/23 22:00:52;;;;;;;3.38;1.08;;;9.90;99.90;;;;;;21197876;28;20063;-79
2021/05/23 22:10:55;;;;;;;2.37;1.27;;;10.10;99.90;;;;;;21200342;28;20028;-80
2021/05/23 22:20:57;;;;;;;3.38;1.30;;;10.00;99.90;;;;;;21194669;28;20099;-80
2021/05/23 22:30:59;;;;;;;2.67;1.10;;;9.50;99.90;;;;;;21189805;28;20080;-81
2021/05/23 22:41:00;;;;;;;;;;;9.10;99.90;;;;;;21151425;28;20084;-79
2021/05/23 22:51:02;;;;;;;1.60;1.20;;;9.10;99.90;;;;;;21116311;28;19976;-81
2021/05/23 23:01:18;;;;;;;6.00;1.33;;;9.00;99.90;;;;;;21115690;28;20028;-79
2021/05/23 23:11:24;;;;;;;1.65;0.93;;;9.30;99.90;;;;;;21104207;28;20135;-79
2021/05/23 23:21:25;;;;;;;3.17;1.20;;;8.70;99.90;;;;;;21198039;28;20054;-80
2021/05/23 23:31:26;;;;;;;;;;;8.60;99.90;;;;;;21185123;28;20030;-80
2021/05/23 23:41:29;;;;;;;2.80;1.35;;;8.80;99.90;;;;;;21209368;28;19994;-81
2021/05/23 23:51:30;;;;;;;1.75;1.00;;;8.50;99.90;;;;;;21173369;28;20032;-81
